Time;durP1;ratioP1;P1;durP2;ratioP2;P2;SDS_P1;SDS_P2;PMS_P1;PMS_P2;Temp;Humidity;BMP_temperature;BMP_pressure;BME280_temperature;BME280_humidity;BME280_pressure;Samples;Min_cycle;Max_cycle;Signal;HPM_P1;HPM_P2
2022/05/28 00:00:34;;;;;;;;;;;;;;;;;;4976607;28;19925;-82
2022/05/28 00:03:00;;;;;;;;;;;;;;;;;;4993015;28;19948;-83
2022/05/28 00:05:26;;;;;;;;;;;;;;;;;;4977105;28;19922;-84
2022/05/28 00:07:51;;;;;;;;;;;;;;;;;;4976232;28;20360;-82
2022/05/28 00:10:17;;;;;;;;;;;;;;;;;;4976720;28;19922;-83
2022/05/28 00:12:43;;;;;;;;;;;;;;;;;;4975849;28;19921;-82
2022/05/28 00:15:09;;;;;;;;;;;;;;;;;;4976319;28;19976;-82
2022/05/28 00:17:36;;;;;;;;;;;;;;;;;;4975994;28;19928;-81
2022/05/28 00:20:02;;;;;;;;;;;;;;;;;;4976726;28;19944;-82
2022/05/28 00:22:28;;;;;;;;;;;;;;;;;;4976076;28;20354;-82
2022/05/28 00:24:54;;;;;;;;;;;;;;;;;;4976009;28;19976;-82
2022/05/28 00:27:19;;;;;;;;;;;;;;;;;;4976696;28;20009;-83
2022/05/28 00:29:45;;;;;;;;;;;;;;;;;;4960076;28;19928;-82
2022/05/28 00:32:11;;;;;;;;;;;;;;;;;;4993348;28;19975;-82
2022/05/28 00:34:40;;;;;;;;;;;;;;;;;;4959416;28;20416;-81
2022/05/28 00:37:06;;;;;;;;;;;;;;;;;;4993477;28;19948;-81
2022/05/28 00:39:32;;;;;;;;;;;;;;;;;;4994072;28;19921;-79
2022/05/28 00:41:58;;;;;;;;;;;;;;;;;;4975963;28;20373;-78
2022/05/28 00:44:24;;;;;;;;;;;;;;;;;;4976667;28;19925;-79
2022/05/28 00:46:50;;;;;;;;;;;;;;;;;;4993310;28;20008;-79
2022/05/28 00:49:16;;;;;;;;;;;;;;;;;;4960722;28;19953;-79
2022/05/28 00:51:41;;;;;;;;;;;;;;;;;;4976431;28;19921;-78
2022/05/28 00:54:08;;;;;;;;;;;;;;;;;;4960320;28;20379;-78
2022/05/28 00:56:34;;;;;;;;;;;;;;;;;;4975919;28;20258;-79
2022/05/28 00:59:00;;;;;;;;;;;;;;;;;;4994924;28;19928;-79
2022/05/28 01:01:26;;;;;;;;;;;;;;;;;;4980794;28;20114;-79
2022/05/28 01:03:52;;;;;;;;;;;;;;;;;;4980180;28;19922;-78
2022/05/28 01:06:18;;;;;;;;;;;;;;;;;;4980132;28;20004;-78
2022/05/28 01:08:44;;;;;;;;;;;;;;;;;;4997307;28;19922;-78
2022/05/28 01:11:10;;;;;;;;;;;;;;;;;;4997438;28;19922;-79
2022/05/28 01:13:36;;;;;;;;;;;;;;;;;;4997850;28;19921;-79
2022/05/28 01:16:03;;;;;;;;;;;;;;;;;;4997363;28;20017;-78
2022/05/28 01:18:29;;;;;;;;;;;;;;;;;;4997634;28;20317;-79
2022/05/28 01:20:55;;;;;;;;;;;;;;;;;;4996771;28;19972;-78
2022/05/28 01:23:20;;;;;;;;;;;;;;;;;;4980273;28;20273;-79
2022/05/28 01:25:46;;;;;;;;;;;;;;;;;;4963827;28;20321;-78
2022/05/28 01:28:12;;;;;;;;;;;;;;;;;;4980131;28;20337;-78
2022/05/28 01:30:38;;;;;;;;;;;;;;;;;;4996788;28;20271;-78
2022/05/28 01:33:04;;;;;;;;;;;;;;;;;;4979945;28;20281;-78
2022/05/28 01:35:30;;;;;;;;;;;;;;;;;;4996787;28;19929;-78
2022/05/28 01:37:56;;;;;;;;;;;;;;;;;;4996074;28;19928;-78
2022/05/28 01:40:22;;;;;;;;;;;;;;;;;;4979261;28;19922;-78
2022/05/28 01:42:48;;;;;;;;;;;;;;;;;;4996781;28;19922;-78
2022/05/28 01:45:14;;;;;;;;;;;;;;;;;;4996592;28;19976;-78
2022/05/28 01:47:42;;;;;;;;;;;;;;;;;;4996638;28;19948;-78
2022/05/28 01:50:08;;;;;;;;;;;;;;;;;;4979310;28;19976;-78
2022/05/28 01:52:34;;;;;;;;;;;;;;;;;;4997169;28;19925;-79
2022/05/28 01:55:00;;;;;;;;;;;;;;;;;;4996302;28;19922;-78
2022/05/28 01:57:27;;;;;;;;;;;;;;;;;;4996810;28;19921;-78
2022/05/28 01:59:52;;;;;;;;;;;;;;;;;;4996235;28;19929;-78
2022/05/28 02:02:18;;;;;;;;;;;;;;;;;;4995970;28;19921;-78
2022/05/28 02:04:45;;;;;;;;;;;;;;;;;;4996137;28;19921;-78
2022/05/28 02:07:11;;;;;;;;;;;;;;;;;;4979690;28;20258;-78
2022/05/28 02:09:37;;;;;;;;;;;;;;;;;;4979137;28;19993;-78
2022/05/28 02:12:03;;;;;;;;;;;;;;;;;;4996076;28;20194;-78
2022/05/28 02:14:29;;;;;;;;;;;;;;;;;;4979302;28;19929;-78
2022/05/28 02:16:56;;;;;;;;;;;;;;;;;;4978894;28;19928;-78
2022/05/28 02:19:22;;;;;;;;;;;;;;;;;;4978763;28;20328;-78
2022/05/28 02:21:48;;;;;;;;;;;;;;;;;;4978199;28;19968;-78
2022/05/28 02:24:14;;;;;;;;;;;;;;;;;;4979186;28;20289;-78
2022/05/28 02:26:42;;;;;;;;;;;;;;;;;;4979296;28;19925;-78
2022/05/28 02:29:08;;;;;;;;;;;;;;;;;;4978774;28;19918;-78
2022/05/28 02:31:34;;;;;;;;;;;;;;;;;;4996079;28;20437;-78
2022/05/28 02:33:59;;;;;;;;;;;;;;;;;;4978155;28;19925;-78
2022/05/28 02:36:25;;;;;;;;;;;;;;;;;;4978612;28;19921;-78
2022/05/28 02:38:51;;;;;;;;;;;;;;;;;;4995779;28;19921;-78
2022/05/28 02:41:17;;;;;;;;;;;;;;;;;;4995702;28;19925;-78
2022/05/28 02:43:43;;;;;;;;;;;;;;;;;;4995734;28;19976;-78
2022/05/28 02:46:09;;;;;;;;;;;;;;;;;;4978062;28;19929;-78
2022/05/28 02:48:35;;;;;;;;;;;;;;;;;;4995770;28;19922;-78
2022/05/28 02:51:01;;;;;;;;;;;;;;;;;;4978209;28;19922;-79
2022/05/28 02:53:27;;;;;;;;;;;;;;;;;;4978374;28;19929;-78
2022/05/28 02:55:53;;;;;;;;;;;;;;;;;;4977841;28;19929;-78
2022/05/28 02:58:19;;;;;;;;;;;;;;;;;;4993577;28;19928;-78
2022/05/28 03:00:45;;;;;;;;;;;;;;;;;;4995486;28;19972;-78
2022/05/28 03:03:11;;;;;;;;;;;;;;;;;;4961356;28;19921;-78
2022/05/28 03:05:37;;;;;;;;;;;;;;;;;;4978036;28;19926;-78
2022/05/28 03:08:03;;;;;;;;;;;;;;;;;;4978268;28;19922;-78
2022/05/28 03:10:30;;;;;;;;;;;;;;;;;;4995518;28;19929;-78
2022/05/28 03:12:56;;;;;;;;;;;;;;;;;;4977702;28;19921;-78
2022/05/28 03:15:22;;;;;;;;;;;;;;;;;;4977649;28;19921;-78
2022/05/28 03:17:48;;;;;;;;;;;;;;;;;;4978123;28;19922;-78
2022/05/28 03:20:14;;;;;;;;;;;;;;;;;;4977368;28;19922;-78
2022/05/28 03:22:40;;;;;;;;;;;;;;;;;;4993835;28;19940;-79
2022/05/28 03:25:06;;;;;;;;;;;;;;;;;;4994987;28;20016;-78
2022/05/28 03:27:32;;;;;;;;;;;;;;;;;;4995312;28;19992;-78
2022/05/28 03:29:58;;;;;;;;;;;;;;;;;;4977070;28;20415;-78
2022/05/28 03:32:24;;;;;;;;;;;;;;;;;;4977369;28;19917;-78
2022/05/28 03:34:50;;;;;;;;;;;;;;;;;;4977743;28;19928;-78
2022/05/28 03:37:16;;;;;;;;;;;;;;;;;;4994095;28;19929;-78
2022/05/28 03:39:42;;;;;;;;;;;;;;;;;;4994860;28;19928;-78
2022/05/28 03:42:08;;;;;;;;;;;;;;;;;;4994038;28;20040;-77
2022/05/28 03:44:34;;;;;;;;;;;;;;;;;;4977635;28;19953;-78
2022/05/28 03:47:00;;;;;;;;;;;;;;;;;;4976936;28;19922;-78
2022/05/28 03:49:26;;;;;;;;;;;;;;;;;;4977353;28;19944;-78
2022/05/28 03:51:52;;;;;;;;;;;;;;;;;;4993363;28;19922;-78
2022/05/28 03:54:18;;;;;;;;;;;;;;;;;;4976663;28;19929;-77
2022/05/28 03:56:44;;;;;;;;;;;;;;;;;;4994342;28;20399;-78
2022/05/28 03:59:10;;;;;;;;;;;;;;;;;;4994074;28;20416;-78
2022/05/28 04:01:36;;;;;;;;;;;;;;;;;;4976777;28;19921;-78
2022/05/28 04:04:02;;;;;;;;;;;;;;;;;;4976994;28;20408;-79
2022/05/28 04:06:28;;;;;;;;;;;;;;;;;;4977035;28;19944;-78
2022/05/28 04:08:54;;;;;;;;;;;;;;;;;;4994299;28;19921;-78
2022/05/28 04:11:20;;;;;;;;;;;;;;;;;;4993825;28;20369;-78
2022/05/28 04:13:46;;;;;;;;;;;;;;;;;;4993751;28;19918;-78
2022/05/28 04:16:12;;;;;;;;;;;;;;;;;;4993545;28;20272;-78
2022/05/28 04:18:38;;;;;;;;;;;;;;;;;;4994123;28;19976;-78
2022/05/28 04:21:04;;;;;;;;;;;;;;;;;;4976733;28;19922;-78
2022/05/28 04:23:30;;;;;;;;;;;;;;;;;;4976396;28;19921;-78
2022/05/28 04:25:56;;;;;;;;;;;;;;;;;;4994314;28;19922;-78
2022/05/28 04:28:22;;;;;;;;;;;;;;;;;;4976622;28;19926;-78
2022/05/28 04:30:48;;;;;;;;;;;;;;;;;;4976841;28;19992;-78
2022/05/28 04:33:14;;;;;;;;;;;;;;;;;;4991642;28;19976;-78
2022/05/28 04:35:40;;;;;;;;;;;;;;;;;;4993242;28;20317;-78
2022/05/28 04:38:06;;;;;;;;;;;;;;;;;;4993296;28;19965;-78
2022/05/28 04:40:32;;;;;;;;;;;;;;;;;;4993611;28;19992;-78
2022/05/28 04:42:58;;;;;;;;;;;;;;;;;;4972560;28;20008;-78
2022/05/28 04:45:23;;;;;;;;;;;;;;;;;;4972853;28;19953;-79
2022/05/28 04:47:49;;;;;;;;;;;;;;;;;;4973920;28;19936;-78
2022/05/28 04:50:15;;;;;;;;;;;;;;;;;;4972373;28;19965;-78
2022/05/28 04:52:41;;;;;;;;;;;;;;;;;;4972984;28;19922;-78
2022/05/28 04:55:07;;;;;;;;;;;;;;;;;;4972647;28;19973;-78
2022/05/28 04:57:33;;;;;;;;;;;;;;;;;;4974137;28;19922;-78
2022/05/28 04:59:59;;;;;;;;;;;;;;;;;;4974089;28;20013;-78
2022/05/28 05:02:25;;;;;;;;;;;;;;;;;;4972579;28;19922;-79
2022/05/28 05:04:51;;;;;;;;;;;;;;;;;;4973791;28;19922;-79
2022/05/28 05:07:17;;;;;;;;;;;;;;;;;;4973109;28;20035;-79
2022/05/28 05:09:43;;;;;;;;;;;;;;;;;;4974363;28;19926;-79
2022/05/28 05:12:09;;;;;;;;;;;;;;;;;;4972876;28;19973;-79
2022/05/28 05:14:35;;;;;;;;;;;;;;;;;;4972180;28;19922;-78
2022/05/28 05:17:01;;;;;;;;;;;;;;;;;;4972593;28;19946;-78
2022/05/28 05:19:27;;;;;;;;;;;;;;;;;;4972893;28;19922;-78
2022/05/28 05:21:53;;;;;;;;;;;;;;;;;;4973082;28;19928;-79
2022/05/28 05:24:18;;;;;;;;;;;;;;;;;;4973881;28;19968;-79
2022/05/28 05:26:44;;;;;;;;;;;;;;;;;;4973336;28;19922;-79
2022/05/28 05:29:10;;;;;;;;;;;;;;;;;;4972654;28;20407;-79
2022/05/28 05:31:36;;;;;;;;;;;;;;;;;;4973657;28;19929;-78
2022/05/28 05:34:04;;;;;;;;;;;;;;;;;;4973179;28;19929;-79
2022/05/28 05:36:30;;;;;;;;;;;;;;;;;;4973399;28;19922;-79
2022/05/28 05:38:55;;;;;;;;;;;;;;;;;;4974014;28;19922;-78
2022/05/28 05:41:21;;;;;;;;;;;;;;;;;;4972252;28;19977;-79
2022/05/28 05:43:47;;;;;;;;;;;;;;;;;;4972373;28;19933;-78
2022/05/28 05:46:13;;;;;;;;;;;;;;;;;;4974892;28;19922;-79
2022/05/28 05:48:39;;;;;;;;;;;;;;;;;;4976009;28;20293;-78
2022/05/28 05:51:05;;;;;;;;;;;;;;;;;;4977423;28;19929;-78
2022/05/28 05:53:31;;;;;;;;;;;;;;;;;;4976794;28;20342;-79
2022/05/28 05:55:57;;;;;;;;;;;;;;;;;;4976042;28;19933;-78
2022/05/28 05:58:23;;;;;;;;;;;;;;;;;;4975307;28;19968;-79
2022/05/28 06:00:49;;;;;;;;;;;;;;;;;;4975726;28;19968;-79
2022/05/28 06:03:15;;;;;;;;;;;;;;;;;;4976868;28;19969;-79
2022/05/28 06:05:41;;;;;;;;;;;;;;;;;;4975771;28;19928;-78
2022/05/28 06:08:07;;;;;;;;;;;;;;;;;;4976825;28;19969;-78
2022/05/28 06:10:33;;;;;;;;;;;;;;;;;;4976447;28;19929;-78
2022/05/28 06:12:59;;;;;;;;;;;;;;;;;;4975848;28;19929;-79
2022/05/28 06:15:25;;;;;;;;;;;;;;;;;;4975378;28;19929;-78
2022/05/28 06:17:51;;;;;;;;;;;;;;;;;;4976585;28;20020;-78
2022/05/28 06:20:17;;;;;;;;;;;;;;;;;;4975337;28;19976;-78
2022/05/28 06:22:43;;;;;;;;;;;;;;;;;;4976836;28;19922;-79
2022/05/28 06:25:08;;;;;;;;;;;;;;;;;;4976889;28;20001;-79
2022/05/28 06:27:34;;;;;;;;;;;;;;;;;;4975001;28;19922;-79
2022/05/28 06:30:00;;;;;;;;;;;;;;;;;;4976197;28;19922;-79
2022/05/28 06:32:26;;;;;;;;;;;;;;;;;;4976132;28;19922;-79
2022/05/28 06:34:52;;;;;;;;;;;;;;;;;;4975495;28;19925;-79
2022/05/28 06:37:18;;;;;;;;;;;;;;;;;;4975786;28;19928;-78
2022/05/28 06:39:44;;;;;;;;;;;;;;;;;;4975369;28;20369;-79
2022/05/28 06:42:10;;;;;;;;;;;;;;;;;;4977309;28;19930;-78
2022/05/28 06:44:36;;;;;;;;;;;;;;;;;;4978272;28;19972;-79
2022/05/28 06:47:03;;;;;;;;;;;;;;;;;;4978268;28;20396;-79
2022/05/28 06:49:29;;;;;;;;;;;;;;;;;;4978314;28;20004;-79
2022/05/28 06:51:55;;;;;;;;;;;;;;;;;;4978603;28;20378;-79
2022/05/28 06:54:21;;;;;;;;;;;;;;;;;;4995073;28;20402;-79
2022/05/28 06:56:47;;;;;;;;;;;;;;;;;;4977511;28;20374;-79
2022/05/28 06:59:13;;;;;;;;;;;;;;;;;;4995349;28;20386;-79
2022/05/28 07:01:40;;;;;;;;;;;;;;;;;;4978172;28;20000;-79
2022/05/28 07:04:05;;;;;;;;;;;;;;;;;;4978145;28;19922;-79
2022/05/28 07:06:32;;;;;;;;;;;;;;;;;;4977933;28;19937;-79
2022/05/28 07:08:58;;;;;;;;;;;;;;;;;;4961660;28;19932;-79
2022/05/28 07:11:23;;;;;;;;;;;;;;;;;;4978245;28;19957;-80
2022/05/28 07:13:49;;;;;;;;;;;;;;;;;;4978035;28;19918;-79
2022/05/28 07:16:15;;;;;;;;;;;;;;;;;;4977079;28;19976;-78
2022/05/28 07:18:41;;;;;;;;;;;;;;;;;;4961216;28;20012;-81
2022/05/28 07:21:07;;;;;;;;;;;;;;;;;;4978163;28;19933;-81
2022/05/28 07:23:33;;;;;;;;;;;;;;;;;;4961018;28;20413;-80
2022/05/28 07:25:59;;;;;;;;;;;;;;;;;;4978263;28;20371;-80
2022/05/28 07:28:25;;;;;;;;;;;;;;;;;;4977641;28;19921;-80
2022/05/28 07:30:51;;;;;;;;;;;;;;;;;;4977896;28;20365;-80
2022/05/28 07:33:17;;;;;;;;;;;;;;;;;;4978024;28;19925;-80
2022/05/28 07:35:43;;;;;;;;;;;;;;;;;;4960411;28;19944;-80
2022/05/28 07:38:09;;;;;;;;;;;;;;;;;;4994421;28;19969;-80
2022/05/28 07:40:35;;;;;;;;;;;;;;;;;;4994520;28;19922;-79
2022/05/28 07:43:01;;;;;;;;;;;;;;;;;;4994542;28;20008;-79
2022/05/28 07:45:27;;;;;;;;;;;;;;;;;;4994172;28;19947;-80
2022/05/28 07:47:53;;;;;;;;;;;;;;;;;;4977649;28;19929;-80
2022/05/28 07:50:20;;;;;;;;;;;;;;;;;;4977353;28;20368;-79
2022/05/28 07:52:46;;;;;;;;;;;;;;;;;;4977068;28;19921;-80
2022/05/28 07:55:13;;;;;;;;;;;;;;;;;;4994260;28;19921;-79
2022/05/28 07:57:39;;;;;;;;;;;;;;;;;;4977334;28;19929;-80
2022/05/28 08:00:05;;;;;;;;;;;;;;;;;;4977175;28;19921;-80
2022/05/28 08:02:31;;;;;;;;;;;;;;;;;;4976727;28;20365;-80
2022/05/28 08:04:57;;;;;;;;;;;;;;;;;;4994442;28;20365;-80
2022/05/28 08:07:23;;;;;;;;;;;;;;;;;;4976977;28;20353;-79
2022/05/28 08:09:49;;;;;;;;;;;;;;;;;;4977018;28;19922;-79
2022/05/28 08:12:15;;;;;;;;;;;;;;;;;;4976515;28;19928;-79
2022/05/28 08:14:41;;;;;;;;;;;;;;;;;;4976019;28;19922;-79
2022/05/28 08:17:07;;;;;;;;;;;;;;;;;;4976773;28;20488;-79
2022/05/28 08:19:33;;;;;;;;;;;;;;;;;;4993955;28;20265;-80
2022/05/28 08:24:43;;;;;;;;;;;;;;;;;;4993399;28;19928;-79
2022/05/28 08:27:09;;;;;;;;;;;;;;;;;;4994194;28;19921;-81
2022/05/28 08:29:35;;;;;;;;;;;;;;;;;;4993617;28;19969;-82
2022/05/28 08:32:01;;;;;;;;;;;;;;;;;;4976535;28;19972;-81
2022/05/28 08:34:27;;;;;;;;;;;;;;;;;;4976457;28;19925;-80
2022/05/28 08:36:53;;;;;;;;;;;;;;;;;;4993543;28;19980;-82
2022/05/28 08:39:19;;;;;;;;;;;;;;;;;;4976885;28;19929;-81
2022/05/28 08:41:45;;;;;;;;;;;;;;;;;;4993507;28;19921;-81
2022/05/28 08:44:11;;;;;;;;;;;;;;;;;;4994182;28;20277;-82
2022/05/28 08:46:37;;;;;;;;;;;;;;;;;;4976753;28;19922;-81
2022/05/28 08:49:02;;;;;;;;;;;;;;;;;;4976585;28;19921;-81
2022/05/28 08:51:28;;;;;;;;;;;;;;;;;;4976631;28;20278;-78
2022/05/28 08:53:54;;;;;;;;;;;;;;;;;;4976812;28;19921;-78
2022/05/28 08:56:20;;;;;;;;;;;;;;;;;;4976289;28;20033;-78
2022/05/28 08:58:46;;;;;;;;;;;;;;;;;;4976222;28;19992;-80
2022/05/28 09:01:12;;;;;;;;;;;;;;;;;;4993670;28;19929;-78
2022/05/28 09:03:38;;;;;;;;;;;;;;;;;;4993209;28;19928;-78
2022/05/28 09:06:04;;;;;;;;;;;;;;;;;;4993398;28;19921;-78
2022/05/28 09:08:30;;;;;;;;;;;;;;;;;;4993536;28;19936;-78
2022/05/28 09:10:56;;;;;;;;;;;;;;;;;;4976286;28;20353;-80
2022/05/28 09:13:22;;;;;;;;;;;;;;;;;;4976450;28;19922;-79
2022/05/28 09:15:48;;;;;;;;;;;;;;;;;;4976183;28;19921;-78
2022/05/28 09:18:14;;;;;;;;;;;;;;;;;;4976668;28;19980;-79
2022/05/28 09:20:40;;;;;;;;;;;;;;;;;;4995347;28;19930;-79
2022/05/28 09:23:06;;;;;;;;;;;;;;;;;;4997326;28;19925;-77
2022/05/28 09:25:32;;;;;;;;;;;;;;;;;;4997397;28;19996;-79
2022/05/28 09:27:58;;;;;;;;;;;;;;;;;;4980408;28;19934;-79
2022/05/28 09:30:24;;;;;;;;;;;;;;;;;;4996695;28;19985;-80
2022/05/28 09:32:49;;;;;;;;;;;;;;;;;;4996864;28;19947;-79
2022/05/28 09:35:15;;;;;;;;;;;;;;;;;;4996760;28;19929;-78
2022/05/28 09:37:42;;;;;;;;;;;;;;;;;;4997099;28;19977;-78
2022/05/28 09:40:08;;;;;;;;;;;;;;;;;;4979626;28;19926;-78
2022/05/28 09:42:34;;;;;;;;;;;;;;;;;;4979702;28;20274;-78
2022/05/28 09:45:00;;;;;;;;;;;;;;;;;;4997399;28;20020;-78
2022/05/28 09:47:26;;;;;;;;;;;;;;;;;;4997273;28;20005;-79
2022/05/28 09:49:52;;;;;;;;;;;;;;;;;;4979667;28;19925;-80
2022/05/28 09:52:18;;;;;;;;;;;;;;;;;;4979265;28;19930;-79
2022/05/28 09:54:44;;;;;;;;;;;;;;;;;;4977959;28;19921;-80
2022/05/28 09:57:10;;;;;;;;;;;;;;;;;;4979305;28;19928;-80
2022/05/28 09:59:36;;;;;;;;;;;;;;;;;;4978729;28;19933;-81
2022/05/28 10:02:04;;;;;;;;;;;;;;;;;;4979368;28;19951;-80
2022/05/28 10:04:30;;;;;;;;;;;;;;;;;;4978113;28;19921;-81
2022/05/28 10:06:57;;;;;;;;;;;;;;;;;;4978410;28;20150;-80
2022/05/28 10:09:23;;;;;;;;;;;;;;;;;;4978454;28;19944;-79
2022/05/28 10:11:49;;;;;;;;;;;;;;;;;;4995206;28;19922;-80
2022/05/28 10:14:15;;;;;;;;;;;;;;;;;;4978427;28;19925;-79
2022/05/28 10:16:41;;;;;;;;;;;;;;;;;;4995934;28;19921;-80
2022/05/28 10:19:07;;;;;;;;;;;;;;;;;;4978233;28;19961;-80
2022/05/28 10:21:33;;;;;;;;;;;;;;;;;;4995314;28;19921;-82
2022/05/28 10:23:59;;;;;;;;;;;;;;;;;;4978404;28;19929;-81
2022/05/28 10:26:29;;;;;;;;;;;;;;;;;;4978484;28;20277;-80
2022/05/28 10:28:54;;;;;;;;;;;;;;;;;;4978034;28;19944;-79
2022/05/28 10:31:20;;;;;;;;;;;;;;;;;;4977997;28;19921;-76
2022/05/28 10:33:47;;;;;;;;;;;;;;;;;;4995813;28;19922;-77
2022/05/28 10:36:12;;;;;;;;;;;;;;;;;;4978662;28;20309;-76
2022/05/28 10:38:38;;;;;;;;;;;;;;;;;;4996360;28;19922;-76
2022/05/28 10:41:04;;;;;;;;;;;;;;;;;;4995027;28;19921;-77
2022/05/28 10:43:31;;;;;;;;;;;;;;;;;;4974740;28;19922;-76
2022/05/28 10:45:56;;;;;;;;;;;;;;;;;;4975169;28;19930;-77
2022/05/28 10:48:22;;;;;;;;;;;;;;;;;;4976576;28;19972;-76
2022/05/28 10:50:48;;;;;;;;;;;;;;;;;;4976108;28;19922;-76
2022/05/28 10:55:53;;;;;;;;;;;;;;;;;;5110535;27;19926;-76
2022/05/28 10:58:19;;;;;;;;;;;;;;;;;;5119742;28;20034;-77
2022/05/28 11:00:45;;;;;;;;;;;;;;;;;;5115701;28;19971;-78
2022/05/28 11:03:11;;;;;;;;;;;;;;;;;;5098795;28;20334;-74
2022/05/28 11:05:37;;;;;;;;;;;;;;;;;;5119319;27;20332;-77
2022/05/28 11:08:03;;;;;;;;;;;;;;;;;;5123949;28;20537;-78
2022/05/28 11:10:29;;;;;;;;;;;;;;;;;;5124431;28;19924;-81
2022/05/28 11:12:55;;;;;;;;;;;;;;;;;;5112861;28;19928;-78
2022/05/28 11:15:22;;;;;;;;;;;;;;;;;;5131142;27;19939;-79
2022/05/28 11:17:48;;;;;;;;;;;;;;;;;;5101039;28;19924;-78
2022/05/28 11:20:14;;;;;;;;;;;;;;;;;;5114002;28;20294;-77
2022/05/28 11:22:40;;;;;;;;;;;;;;;;;;5109749;28;19967;-80
2022/05/28 11:25:09;;;;;;;;;;;;;;;;;;5106024;27;19927;-77
2022/05/28 11:27:35;;;;;;;;;;;;;;;;;;5103441;28;20662;-81
2022/05/28 11:30:00;;;;;;;;;;;;;;;;;;5096791;28;19930;-79
2022/05/28 11:32:26;;;;;;;;;;;;;;;;;;5106458;28;19927;-82
2022/05/28 11:34:52;;;;;;;;;;;;;;;;;;5089928;27;19983;-80
2022/05/28 11:37:18;;;;;;;;;;;;;;;;;;5107882;28;19998;-78
2022/05/28 11:39:44;;;;;;;;;;;;;;;;;;5108097;28;20503;-80
2022/05/28 11:42:11;;;;;;;;;;;;;;;;;;5105807;28;19947;-77
2022/05/28 11:44:37;;;;;;;;;;;;;;;;;;5108226;28;19924;-77
2022/05/28 11:47:03;;;;;;;;;;;;;;;;;;5108477;28;19924;-79
2022/05/28 11:52:13;;;;;;;;;;;;;;;;;;5106304;27;19946;-78
2022/05/28 11:54:39;;;;;;;;;;;;;;;;;;5107627;28;20386;-81
2022/05/28 11:57:05;;;;;;;;;;;;;;;;;;5106520;27;19928;-80
2022/05/28 11:59:31;;;;;;;;;;;;;;;;;;5114312;28;19966;-80
2022/05/28 12:01:57;;;;;;;;;;;;;;;;;;5088422;28;20390;-78
2022/05/28 12:04:23;;;;;;;;;;;;;;;;;;5105481;28;19924;-79
2022/05/28 12:06:51;;;;;;;;;;;;;;;;;;5091377;28;19924;-79
2022/05/28 12:09:18;;;;;;;;;;;;;;;;;;5091672;28;19931;-79
2022/05/28 12:11:44;;;;;;;;;;;;;;;;;;5080152;28;19924;-84
2022/05/28 12:14:10;;;;;;;;;;;;;;;;;;5075096;28;20502;-75
2022/05/28 12:16:36;;;;;;;;;;;;;;;;;;5087903;28;19928;-79
2022/05/28 12:19:02;;;;;;;;;;;;;;;;;;5080977;28;20294;-79
2022/05/28 12:21:28;;;;;;;;;;;;;;;;;;5087247;28;19924;-79
2022/05/28 12:23:54;;;;;;;;;;;;;;;;;;5091522;28;19924;-82
2022/05/28 12:26:43;;;;;;;;;;;;;;;;;;5092743;28;19924;-81
2022/05/28 12:29:06;;;;;;;;;;;;;;;;;;5093002;28;20066;-81
2022/05/28 12:31:32;;;;;;;;;;;;;;;;;;5094614;28;19973;-81
2022/05/28 12:33:58;;;;;;;;;;;;;;;;;;5096996;28;20014;-82
2022/05/28 12:36:26;;;;;;;;;;;;;;;;;;5107643;28;19924;-81
2022/05/28 12:38:52;;;;;;;;;;;;;;;;;;5098262;28;19928;-81
2022/05/28 12:41:18;;;;;;;;;;;;;;;;;;5098497;28;19924;-81
2022/05/28 12:43:44;;;;;;;;;;;;;;;;;;5077507;28;19924;-81
2022/05/28 12:46:10;;;;;;;;;;;;;;;;;;5100065;28;19931;-80
2022/05/28 12:48:35;;;;;;;;;;;;;;;;;;5096161;28;20343;-81
2022/05/28 12:51:01;;;;;;;;;;;;;;;;;;5074840;28;19924;-82
2022/05/28 12:53:27;;;;;;;;;;;;;;;;;;5104332;28;19992;-82
2022/05/28 12:55:53;;;;;;;;;;;;;;;;;;5108493;28;20014;-80
2022/05/28 12:58:19;;;;;;;;;;;;;;;;;;5093779;28;20434;-81
2022/05/28 13:00:45;;;;;;;;;;;;;;;;;;5093571;28;20306;-81
2022/05/28 13:03:11;;;;;;;;;;;;;;;;;;5097122;28;19952;-81
2022/05/28 13:05:42;;;;;;;;;;;;;;;;;;5096890;28;19924;-81
2022/05/28 13:08:08;;;;;;;;;;;;;;;;;;5091614;28;19924;-81
2022/05/28 13:10:34;;;;;;;;;;;;;;;;;;5097161;28;19972;-81
2022/05/28 13:12:59;;;;;;;;;;;;;;;;;;5097023;28;19924;-80
2022/05/28 13:15:25;;;;;;;;;;;;;;;;;;5096971;28;19934;-81
2022/05/28 13:17:51;;;;;;;;;;;;;;;;;;5093769;28;19981;-80
2022/05/28 13:20:17;;;;;;;;;;;;;;;;;;5116671;27;20014;-80
2022/05/28 13:22:43;;;;;;;;;;;;;;;;;;5117485;27;19923;-80
2022/05/28 13:25:09;;;;;;;;;;;;;;;;;;5116832;27;19924;-79
2022/05/28 13:27:35;;;;;;;;;;;;;;;;;;5111719;27;19927;-81
2022/05/28 13:30:01;;;;;;;;;;;;;;;;;;5116006;27;19939;-80
2022/05/28 13:32:27;;;;;;;;;;;;;;;;;;5099885;27;19923;-81
2022/05/28 13:34:53;;;;;;;;;;;;;;;;;;5117122;27;19923;-80
2022/05/28 13:37:19;;;;;;;;;;;;;;;;;;5093913;27;20014;-80
2022/05/28 13:39:45;;;;;;;;;;;;;;;;;;5098914;28;20022;-80
2022/05/28 13:42:12;;;;;;;;;;;;;;;;;;5079363;28;19924;-79
2022/05/28 13:44:38;;;;;;;;;;;;;;;;;;5096565;28;20263;-80
2022/05/28 13:47:04;;;;;;;;;;;;;;;;;;5107774;27;19930;-82
2022/05/28 13:49:29;;;;;;;;;;;;;;;;;;5110956;27;19920;-81
2022/05/28 13:51:55;;;;;;;;;;;;;;;;;;5079611;28;19973;-81
2022/05/28 13:54:21;;;;;;;;;;;;;;;;;;5090841;28;20030;-80
2022/05/28 13:56:47;;;;;;;;;;;;;;;;;;5113376;28;19924;-80
2022/05/28 13:59:13;;;;;;;;;;;;;;;;;;5082221;28;20022;-80
2022/05/28 14:01:39;;;;;;;;;;;;;;;;;;5093216;28;19925;-80
2022/05/28 14:04:05;;;;;;;;;;;;;;;;;;5092921;28;19935;-80
2022/05/28 14:06:31;;;;;;;;;;;;;;;;;;5090296;28;19928;-81
2022/05/28 14:08:57;;;;;;;;;;;;;;;;;;5091521;28;20011;-81
2022/05/28 14:11:23;;;;;;;;;;;;;;;;;;5074184;28;19931;-80
2022/05/28 14:13:49;;;;;;;;;;;;;;;;;;5092581;28;19928;-81
2022/05/28 14:16:15;;;;;;;;;;;;;;;;;;5096671;28;19928;-81
2022/05/28 14:18:41;;;;;;;;;;;;;;;;;;5099836;28;19931;-81
2022/05/28 14:21:07;;;;;;;;;;;;;;;;;;5092047;28;19932;-80
2022/05/28 14:23:33;;;;;;;;;;;;;;;;;;5091866;28;19928;-81
2022/05/28 14:25:59;;;;;;;;;;;;;;;;;;5072838;28;19924;-80
2022/05/28 14:28:26;;;;;;;;;;;;;;;;;;5103361;28;19938;-82
2022/05/28 14:30:52;;;;;;;;;;;;;;;;;;5108691;28;20437;-80
2022/05/28 14:33:18;;;;;;;;;;;;;;;;;;5095205;28;19978;-80
2022/05/28 14:35:44;;;;;;;;;;;;;;;;;;5112854;28;19924;-80
2022/05/28 14:38:10;;;;;;;;;;;;;;;;;;5107913;28;19931;-81
2022/05/28 14:40:36;;;;;;;;;;;;;;;;;;5092123;28;19928;-80
2022/05/28 14:43:03;;;;;;;;;;;;;;;;;;5092442;28;20057;-80
2022/05/28 14:45:29;;;;;;;;;;;;;;;;;;5091713;28;19924;-81
2022/05/28 14:47:55;;;;;;;;;;;;;;;;;;5094611;28;19980;-80
2022/05/28 14:50:21;;;;;;;;;;;;;;;;;;5104092;28;19927;-80
2022/05/28 14:52:47;;;;;;;;;;;;;;;;;;5095370;28;19947;-80
2022/05/28 14:55:13;;;;;;;;;;;;;;;;;;5112165;28;19952;-80
2022/05/28 14:57:39;;;;;;;;;;;;;;;;;;5107056;28;20068;-80
2022/05/28 15:00:05;;;;;;;;;;;;;;;;;;5091765;28;19928;-80
2022/05/28 15:02:31;;;;;;;;;;;;;;;;;;5074813;28;19947;-80
2022/05/28 15:04:57;;;;;;;;;;;;;;;;;;5091812;28;19924;-80
2022/05/28 15:07:23;;;;;;;;;;;;;;;;;;5090871;28;19939;-81
2022/05/28 15:09:50;;;;;;;;;;;;;;;;;;5109516;28;19924;-80
2022/05/28 15:12:16;;;;;;;;;;;;;;;;;;5071715;28;19929;-80
2022/05/28 15:14:42;;;;;;;;;;;;;;;;;;5089514;28;20421;-80
2022/05/28 15:17:08;;;;;;;;;;;;;;;;;;5091938;28;19931;-80
2022/05/28 15:19:34;;;;;;;;;;;;;;;;;;5095021;28;20018;-81
2022/05/28 15:22:00;;;;;;;;;;;;;;;;;;5092096;28;19924;-80
2022/05/28 15:24:25;;;;;;;;;;;;;;;;;;5091190;28;19928;-82
2022/05/28 15:26:51;;;;;;;;;;;;;;;;;;5092199;28;19962;-80
2022/05/28 15:29:17;;;;;;;;;;;;;;;;;;5088283;28;19932;-80
2022/05/28 15:31:43;;;;;;;;;;;;;;;;;;5106002;28;19924;-80
2022/05/28 15:34:09;;;;;;;;;;;;;;;;;;5112138;28;19970;-80
2022/05/28 15:39:20;;;;;;;;;;;;;;;;;;5094365;28;20003;-80
2022/05/28 15:41:47;;;;;;;;;;;;;;;;;;5106278;28;20243;-80
2022/05/28 15:44:13;;;;;;;;;;;;;;;;;;5115671;28;19924;-80
2022/05/28 15:46:39;;;;;;;;;;;;;;;;;;5115513;28;19924;-80
2022/05/28 15:49:05;;;;;;;;;;;;;;;;;;5104202;28;20086;-80
2022/05/28 15:51:31;;;;;;;;;;;;;;;;;;5077061;28;19924;-82
2022/05/28 15:53:57;;;;;;;;;;;;;;;;;;5091311;28;20010;-81
2022/05/28 15:56:23;;;;;;;;;;;;;;;;;;5098914;28;19928;-80
2022/05/28 15:58:49;;;;;;;;;;;;;;;;;;5093718;28;20056;-80
2022/05/28 16:01:15;;;;;;;;;;;;;;;;;;5095203;28;19928;-80
2022/05/28 16:03:41;;;;;;;;;;;;;;;;;;5099977;28;19924;-81
2022/05/28 16:06:10;;;;;;;;;;;;;;;;;;5089056;28;19924;-81
2022/05/28 16:08:39;;;;;;;;;;;;;;;;;;5093451;28;19967;-81
2022/05/28 16:11:05;;;;;;;;;;;;;;;;;;5094280;28;20023;-80
2022/05/28 16:13:31;;;;;;;;;;;;;;;;;;5094156;28;19975;-81
2022/05/28 16:15:57;;;;;;;;;;;;;;;;;;5115493;28;20014;-80
2022/05/28 16:18:23;;;;;;;;;;;;;;;;;;5085318;28;20019;-80
2022/05/28 16:20:49;;;;;;;;;;;;;;;;;;5077598;28;19974;-80
2022/05/28 16:23:15;;;;;;;;;;;;;;;;;;5095070;28;19931;-81
2022/05/28 16:25:41;;;;;;;;;;;;;;;;;;5108767;28;19924;-81
2022/05/28 16:28:07;;;;;;;;;;;;;;;;;;5090249;28;20386;-80
2022/05/28 16:30:33;;;;;;;;;;;;;;;;;;5077905;28;20344;-81
2022/05/28 16:32:59;;;;;;;;;;;;;;;;;;5077374;28;19928;-80
2022/05/28 16:35:25;;;;;;;;;;;;;;;;;;5102878;28;19928;-80
2022/05/28 16:37:51;;;;;;;;;;;;;;;;;;5087024;28;19924;-80
2022/05/28 16:40:17;;;;;;;;;;;;;;;;;;5077627;28;19992;-80
2022/05/28 16:42:43;;;;;;;;;;;;;;;;;;5094246;28;19924;-79
2022/05/28 16:45:09;;;;;;;;;;;;;;;;;;5096275;28;20053;-79
2022/05/28 16:47:34;;;;;;;;;;;;;;;;;;5099858;28;20346;-78